sensor_id;sensor_type;location;lat;lon;timestamp;P1;durP1;ratioP1;P2;durP2;ratioP2
3647;SDS011;1840;48.892;15.312;2023-06-10T00:01:10;13.10;;;8.30;;
3647;SDS011;1840;48.892;15.312;2023-06-10T00:03:40;16.10;;;9.07;;
3647;SDS011;1840;48.892;15.312;2023-06-10T00:06:09;23.20;;;10.97;;
3647;SDS011;1840;48.892;15.312;2023-06-10T00:08:38;14.85;;;9.23;;
3647;SDS011;1840;48.892;15.312;2023-06-10T00:11:06;19.07;;;10.27;;
3647;SDS011;1840;48.892;15.312;2023-06-10T00:13:34;16.77;;;8.33;;
3647;SDS011;1840;48.892;15.312;2023-06-10T00:16:03;14.87;;;9.10;;
3647;SDS011;1840;48.892;15.312;2023-06-10T00:18:31;11.50;;;8.00;;
3647;SDS011;1840;48.892;15.312;2023-06-10T00:21:01;24.70;;;9.30;;
3647;SDS011;1840;48.892;15.312;2023-06-10T00:23:30;16.60;;;9.50;;
3647;SDS011;1840;48.892;15.312;2023-06-10T00:26:04;15.00;;;8.63;;
3647;SDS011;1840;48.892;15.312;2023-06-10T00:28:32;16.90;;;8.98;;
3647;SDS011;1840;48.892;15.312;2023-06-10T00:31:00;16.97;;;10.43;;
3647;SDS011;1840;48.892;15.312;2023-06-10T00:33:30;19.63;;;8.60;;
3647;SDS011;1840;48.892;15.312;2023-06-10T00:35:58;16.47;;;10.47;;
3647;SDS011;1840;48.892;15.312;2023-06-10T00:38:27;16.47;;;9.27;;
3647;SDS011;1840;48.892;15.312;2023-06-10T00:40:56;17.53;;;9.97;;
3647;SDS011;1840;48.892;15.312;2023-06-10T00:43:24;17.08;;;10.43;;
3647;SDS011;1840;48.892;15.312;2023-06-10T00:45:52;16.30;;;8.60;;
3647;SDS011;1840;48.892;15.312;2023-06-10T00:48:20;13.70;;;9.10;;
3647;SDS011;1840;48.892;15.312;2023-06-10T00:50:48;14.07;;;9.18;;
3647;SDS011;1840;48.892;15.312;2023-06-10T00:53:16;17.10;;;11.50;;
3647;SDS011;1840;48.892;15.312;2023-06-10T00:55:46;13.80;;;10.10;;
3647;SDS011;1840;48.892;15.312;2023-06-10T00:58:15;19.67;;;11.80;;
3647;SDS011;1840;48.892;15.312;2023-06-10T01:00:43;12.20;;;9.43;;
3647;SDS011;1840;48.892;15.312;2023-06-10T01:03:13;14.00;;;9.03;;
3647;SDS011;1840;48.892;15.312;2023-06-10T01:05:43;14.70;;;8.37;;
3647;SDS011;1840;48.892;15.312;2023-06-10T01:08:17;11.33;;;8.17;;
3647;SDS011;1840;48.892;15.312;2023-06-10T01:10:59;18.37;;;9.27;;
3647;SDS011;1840;48.892;15.312;2023-06-10T01:13:29;19.43;;;8.97;;
3647;SDS011;1840;48.892;15.312;2023-06-10T01:15:58;14.23;;;8.73;;
3647;SDS011;1840;48.892;15.312;2023-06-10T01:18:29;12.97;;;9.10;;
3647;SDS011;1840;48.892;15.312;2023-06-10T01:20:57;11.27;;;7.57;;
3647;SDS011;1840;48.892;15.312;2023-06-10T01:23:27;12.90;;;8.03;;
3647;SDS011;1840;48.892;15.312;2023-06-10T01:25:56;16.83;;;9.97;;
3647;SDS011;1840;48.892;15.312;2023-06-10T01:28:30;15.67;;;9.47;;
3647;SDS011;1840;48.892;15.312;2023-06-10T01:31:03;14.53;;;9.77;;
3647;SDS011;1840;48.892;15.312;2023-06-10T01:33:38;15.90;;;9.37;;
3647;SDS011;1840;48.892;15.312;2023-06-10T01:36:11;15.90;;;10.17;;
3647;SDS011;1840;48.892;15.312;2023-06-10T01:38:42;13.63;;;9.03;;
3647;SDS011;1840;48.892;15.312;2023-06-10T01:41:12;16.67;;;10.40;;
3647;SDS011;1840;48.892;15.312;2023-06-10T01:43:43;17.50;;;11.17;;
3647;SDS011;1840;48.892;15.312;2023-06-10T01:46:11;19.83;;;10.27;;
3647;SDS011;1840;48.892;15.312;2023-06-10T01:48:40;13.20;;;9.30;;
3647;SDS011;1840;48.892;15.312;2023-06-10T01:51:09;13.90;;;10.17;;
3647;SDS011;1840;48.892;15.312;2023-06-10T01:53:37;19.07;;;10.70;;
3647;SDS011;1840;48.892;15.312;2023-06-10T01:56:06;15.70;;;9.98;;
3647;SDS011;1840;48.892;15.312;2023-06-10T01:58:34;13.70;;;9.70;;
3647;SDS011;1840;48.892;15.312;2023-06-10T02:01:02;14.00;;;10.50;;
3647;SDS011;1840;48.892;15.312;2023-06-10T02:03:31;14.50;;;11.27;;
3647;SDS011;1840;48.892;15.312;2023-06-10T02:05:59;19.23;;;11.67;;
3647;SDS011;1840;48.892;15.312;2023-06-10T02:08:27;16.10;;;11.33;;
3647;SDS011;1840;48.892;15.312;2023-06-10T02:10:55;21.00;;;11.97;;
3647;SDS011;1840;48.892;15.312;2023-06-10T02:13:24;21.10;;;14.20;;
3647;SDS011;1840;48.892;15.312;2023-06-10T02:15:52;17.67;;;12.90;;
3647;SDS011;1840;48.892;15.312;2023-06-10T02:18:21;18.90;;;13.37;;
3647;SDS011;1840;48.892;15.312;2023-06-10T02:20:49;17.90;;;12.93;;
3647;SDS011;1840;48.892;15.312;2023-06-10T02:23:17;21.70;;;14.60;;
3647;SDS011;1840;48.892;15.312;2023-06-10T02:25:45;21.30;;;14.80;;
3647;SDS011;1840;48.892;15.312;2023-06-10T02:28:14;23.23;;;15.10;;
3647;SDS011;1840;48.892;15.312;2023-06-10T02:30:44;22.47;;;16.03;;
3647;SDS011;1840;48.892;15.312;2023-06-10T02:33:13;23.60;;;15.30;;
3647;SDS011;1840;48.892;15.312;2023-06-10T02:35:41;26.60;;;17.27;;
3647;SDS011;1840;48.892;15.312;2023-06-10T02:38:09;22.38;;;17.25;;
3647;SDS011;1840;48.892;15.312;2023-06-10T02:40:37;23.40;;;16.80;;
3647;SDS011;1840;48.892;15.312;2023-06-10T02:43:08;28.93;;;19.97;;
3647;SDS011;1840;48.892;15.312;2023-06-10T02:45:36;23.67;;;17.60;;
3647;SDS011;1840;48.892;15.312;2023-06-10T02:48:06;23.87;;;17.60;;
3647;SDS011;1840;48.892;15.312;2023-06-10T02:50:34;22.90;;;16.30;;
3647;SDS011;1840;48.892;15.312;2023-06-10T02:53:02;27.57;;;18.90;;
3647;SDS011;1840;48.892;15.312;2023-06-10T02:55:30;26.33;;;18.10;;
3647;SDS011;1840;48.892;15.312;2023-06-10T02:57:58;24.87;;;19.00;;
3647;SDS011;1840;48.892;15.312;2023-06-10T03:00:27;29.30;;;18.63;;
3647;SDS011;1840;48.892;15.312;2023-06-10T03:02:55;24.10;;;18.17;;
3647;SDS011;1840;48.892;15.312;2023-06-10T03:05:25;21.53;;;16.10;;
3647;SDS011;1840;48.892;15.312;2023-06-10T03:07:53;32.30;;;17.97;;
3647;SDS011;1840;48.892;15.312;2023-06-10T03:10:21;27.30;;;18.17;;
3647;SDS011;1840;48.892;15.312;2023-06-10T03:12:49;23.20;;;17.70;;
3647;SDS011;1840;48.892;15.312;2023-06-10T03:15:17;25.43;;;18.50;;
3647;SDS011;1840;48.892;15.312;2023-06-10T03:17:47;23.43;;;17.20;;
3647;SDS011;1840;48.892;15.312;2023-06-10T03:20:15;24.73;;;17.70;;
3647;SDS011;1840;48.892;15.312;2023-06-10T03:22:45;21.80;;;16.90;;
3647;SDS011;1840;48.892;15.312;2023-06-10T03:25:12;22.30;;;17.07;;
3647;SDS011;1840;48.892;15.312;2023-06-10T03:27:42;24.60;;;17.23;;
3647;SDS011;1840;48.892;15.312;2023-06-10T03:30:11;24.57;;;17.20;;
3647;SDS011;1840;48.892;15.312;2023-06-10T03:32:40;22.07;;;15.70;;
3647;SDS011;1840;48.892;15.312;2023-06-10T03:35:08;25.23;;;16.23;;
3647;SDS011;1840;48.892;15.312;2023-06-10T03:37:37;19.25;;;15.32;;
3647;SDS011;1840;48.892;15.312;2023-06-10T03:40:08;20.63;;;15.30;;
3647;SDS011;1840;48.892;15.312;2023-06-10T03:42:36;22.00;;;16.03;;
3647;SDS011;1840;48.892;15.312;2023-06-10T03:45:05;18.50;;;14.00;;
3647;SDS011;1840;48.892;15.312;2023-06-10T03:47:34;20.87;;;16.07;;
3647;SDS011;1840;48.892;15.312;2023-06-10T03:50:04;21.30;;;14.83;;
3647;SDS011;1840;48.892;15.312;2023-06-10T03:52:33;21.83;;;15.30;;
3647;SDS011;1840;48.892;15.312;2023-06-10T03:55:01;21.13;;;15.80;;
3647;SDS011;1840;48.892;15.312;2023-06-10T03:57:31;21.23;;;15.75;;
3647;SDS011;1840;48.892;15.312;2023-06-10T03:59:59;20.50;;;15.07;;
3647;SDS011;1840;48.892;15.312;2023-06-10T04:02:29;29.33;;;16.87;;
3647;SDS011;1840;48.892;15.312;2023-06-10T04:04:59;18.33;;;13.70;;
3647;SDS011;1840;48.892;15.312;2023-06-10T04:07:27;26.20;;;16.20;;
3647;SDS011;1840;48.892;15.312;2023-06-10T04:09:57;29.50;;;17.10;;
3647;SDS011;1840;48.892;15.312;2023-06-10T04:12:25;27.02;;;17.60;;
3647;SDS011;1840;48.892;15.312;2023-06-10T04:14:54;19.63;;;14.83;;
3647;SDS011;1840;48.892;15.312;2023-06-10T04:17:22;21.83;;;16.20;;
3647;SDS011;1840;48.892;15.312;2023-06-10T04:19:50;21.15;;;15.68;;
3647;SDS011;1840;48.892;15.312;2023-06-10T04:22:18;24.23;;;16.40;;
3647;SDS011;1840;48.892;15.312;2023-06-10T04:24:46;32.17;;;19.53;;
3647;SDS011;1840;48.892;15.312;2023-06-10T04:27:14;25.70;;;18.80;;
3647;SDS011;1840;48.892;15.312;2023-06-10T04:29:42;27.33;;;18.27;;
3647;SDS011;1840;48.892;15.312;2023-06-10T04:32:12;27.10;;;19.93;;
3647;SDS011;1840;48.892;15.312;2023-06-10T04:34:40;23.20;;;16.30;;
3647;SDS011;1840;48.892;15.312;2023-06-10T04:37:09;26.20;;;18.50;;
3647;SDS011;1840;48.892;15.312;2023-06-10T04:39:37;21.73;;;16.30;;
3647;SDS011;1840;48.892;15.312;2023-06-10T04:42:05;22.67;;;17.40;;
3647;SDS011;1840;48.892;15.312;2023-06-10T04:44:33;23.57;;;17.33;;
3647;SDS011;1840;48.892;15.312;2023-06-10T04:47:01;21.70;;;15.47;;
3647;SDS011;1840;48.892;15.312;2023-06-10T04:49:31;22.30;;;16.20;;
3647;SDS011;1840;48.892;15.312;2023-06-10T04:51:59;23.35;;;17.08;;
3647;SDS011;1840;48.892;15.312;2023-06-10T04:54:27;26.27;;;18.50;;
3647;SDS011;1840;48.892;15.312;2023-06-10T04:56:55;22.30;;;17.50;;
3647;SDS011;1840;48.892;15.312;2023-06-10T04:59:23;25.93;;;17.90;;
3647;SDS011;1840;48.892;15.312;2023-06-10T05:01:51;18.90;;;15.33;;
3647;SDS011;1840;48.892;15.312;2023-06-10T05:04:21;23.37;;;18.40;;
3647;SDS011;1840;48.892;15.312;2023-06-10T05:06:50;32.07;;;16.37;;
3647;SDS011;1840;48.892;15.312;2023-06-10T05:09:19;23.70;;;17.50;;
3647;SDS011;1840;48.892;15.312;2023-06-10T05:11:47;20.15;;;15.38;;
3647;SDS011;1840;48.892;15.312;2023-06-10T05:14:15;21.50;;;15.90;;
3647;SDS011;1840;48.892;15.312;2023-06-10T05:16:45;22.27;;;17.30;;
3647;SDS011;1840;48.892;15.312;2023-06-10T05:19:13;19.80;;;15.23;;
3647;SDS011;1840;48.892;15.312;2023-06-10T05:21:42;25.20;;;15.68;;
3647;SDS011;1840;48.892;15.312;2023-06-10T05:24:12;18.67;;;15.37;;
3647;SDS011;1840;48.892;15.312;2023-06-10T05:26:40;24.10;;;17.60;;
3647;SDS011;1840;48.892;15.312;2023-06-10T05:29:08;22.97;;;17.70;;
3647;SDS011;1840;48.892;15.312;2023-06-10T05:31:36;23.83;;;17.90;;
3647;SDS011;1840;48.892;15.312;2023-06-10T05:34:04;21.10;;;15.80;;
3647;SDS011;1840;48.892;15.312;2023-06-10T05:36:32;24.80;;;17.40;;
3647;SDS011;1840;48.892;15.312;2023-06-10T05:39:00;24.17;;;17.17;;
3647;SDS011;1840;48.892;15.312;2023-06-10T05:41:30;23.20;;;16.53;;
3647;SDS011;1840;48.892;15.312;2023-06-10T05:43:58;24.93;;;18.30;;
3647;SDS011;1840;48.892;15.312;2023-06-10T05:46:26;20.70;;;16.37;;
3647;SDS011;1840;48.892;15.312;2023-06-10T05:48:55;20.40;;;16.10;;
3647;SDS011;1840;48.892;15.312;2023-06-10T05:51:23;21.60;;;16.87;;
3647;SDS011;1840;48.892;15.312;2023-06-10T05:53:51;21.10;;;15.50;;
3647;SDS011;1840;48.892;15.312;2023-06-10T05:56:19;23.13;;;15.13;;
3647;SDS011;1840;48.892;15.312;2023-06-10T05:58:51;21.43;;;16.27;;
3647;SDS011;1840;48.892;15.312;2023-06-10T06:01:19;19.35;;;15.38;;
3647;SDS011;1840;48.892;15.312;2023-06-10T06:03:47;23.43;;;15.90;;
3647;SDS011;1840;48.892;15.312;2023-06-10T06:06:15;20.50;;;16.70;;
3647;SDS011;1840;48.892;15.312;2023-06-10T06:08:43;22.83;;;15.20;;
3647;SDS011;1840;48.892;15.312;2023-06-10T06:11:11;24.87;;;16.93;;
3647;SDS011;1840;48.892;15.312;2023-06-10T06:13:39;23.10;;;16.47;;
3647;SDS011;1840;48.892;15.312;2023-06-10T06:16:09;23.63;;;14.83;;
3647;SDS011;1840;48.892;15.312;2023-06-10T06:18:37;21.73;;;16.87;;
3647;SDS011;1840;48.892;15.312;2023-06-10T06:21:06;20.17;;;15.77;;
3647;SDS011;1840;48.892;15.312;2023-06-10T06:23:34;20.93;;;15.90;;
3647;SDS011;1840;48.892;15.312;2023-06-10T06:26:02;39.03;;;17.83;;
3647;SDS011;1840;48.892;15.312;2023-06-10T06:28:34;26.47;;;17.53;;
3647;SDS011;1840;48.892;15.312;2023-06-10T06:31:02;21.63;;;16.40;;
3647;SDS011;1840;48.892;15.312;2023-06-10T06:33:32;22.00;;;16.00;;
3647;SDS011;1840;48.892;15.312;2023-06-10T06:36:00;21.00;;;16.60;;
3647;SDS011;1840;48.892;15.312;2023-06-10T06:38:29;26.00;;;17.93;;
3647;SDS011;1840;48.892;15.312;2023-06-10T06:40:57;22.70;;;15.47;;
3647;SDS011;1840;48.892;15.312;2023-06-10T06:43:29;18.90;;;15.32;;
3647;SDS011;1840;48.892;15.312;2023-06-10T06:45:57;22.20;;;13.80;;
3647;SDS011;1840;48.892;15.312;2023-06-10T06:48:25;18.50;;;15.43;;
3647;SDS011;1840;48.892;15.312;2023-06-10T06:50:55;19.37;;;15.00;;
3647;SDS011;1840;48.892;15.312;2023-06-10T06:53:24;17.80;;;13.23;;
3647;SDS011;1840;48.892;15.312;2023-06-10T06:55:56;19.97;;;14.90;;
3647;SDS011;1840;48.892;15.312;2023-06-10T06:58:24;17.70;;;13.77;;
3647;SDS011;1840;48.892;15.312;2023-06-10T07:00:52;20.07;;;13.60;;
3647;SDS011;1840;48.892;15.312;2023-06-10T07:03:20;19.80;;;14.80;;
3647;SDS011;1840;48.892;15.312;2023-06-10T07:05:48;16.20;;;12.93;;
3647;SDS011;1840;48.892;15.312;2023-06-10T07:08:18;16.23;;;12.90;;
3647;SDS011;1840;48.892;15.312;2023-06-10T07:10:46;19.70;;;13.20;;
3647;SDS011;1840;48.892;15.312;2023-06-10T07:13:15;18.13;;;13.57;;
3647;SDS011;1840;48.892;15.312;2023-06-10T07:15:43;16.97;;;12.63;;
3647;SDS011;1840;48.892;15.312;2023-06-10T07:18:11;17.90;;;13.13;;
3647;SDS011;1840;48.892;15.312;2023-06-10T07:20:39;15.87;;;12.90;;
3647;SDS011;1840;48.892;15.312;2023-06-10T07:23:07;19.73;;;12.90;;
3647;SDS011;1840;48.892;15.312;2023-06-10T07:25:37;16.90;;;13.03;;
3647;SDS011;1840;48.892;15.312;2023-06-10T07:28:05;22.53;;;13.13;;
3647;SDS011;1840;48.892;15.312;2023-06-10T07:30:33;17.53;;;14.00;;
3647;SDS011;1840;48.892;15.312;2023-06-10T07:33:01;17.67;;;13.47;;
3647;SDS011;1840;48.892;15.312;2023-06-10T07:35:29;16.77;;;13.37;;
3647;SDS011;1840;48.892;15.312;2023-06-10T07:37:57;16.90;;;13.43;;
3647;SDS011;1840;48.892;15.312;2023-06-10T07:40:25;20.63;;;13.87;;
3647;SDS011;1840;48.892;15.312;2023-06-10T07:42:55;18.30;;;13.67;;
3647;SDS011;1840;48.892;15.312;2023-06-10T07:45:23;19.67;;;14.40;;
3647;SDS011;1840;48.892;15.312;2023-06-10T07:47:51;26.93;;;14.53;;
3647;SDS011;1840;48.892;15.312;2023-06-10T07:50:19;18.00;;;13.60;;
3647;SDS011;1840;48.892;15.312;2023-06-10T07:52:47;21.70;;;15.47;;
3647;SDS011;1840;48.892;15.312;2023-06-10T07:55:15;17.50;;;14.37;;
3647;SDS011;1840;48.892;15.312;2023-06-10T07:57:43;28.63;;;13.57;;
3647;SDS011;1840;48.892;15.312;2023-06-10T08:00:13;23.10;;;14.83;;
3647;SDS011;1840;48.892;15.312;2023-06-10T08:02:42;18.73;;;14.50;;
3647;SDS011;1840;48.892;15.312;2023-06-10T08:05:10;17.03;;;13.37;;
3647;SDS011;1840;48.892;15.312;2023-06-10T08:07:39;19.70;;;14.37;;
3647;SDS011;1840;48.892;15.312;2023-06-10T08:10:07;15.40;;;13.43;;
3647;SDS011;1840;48.892;15.312;2023-06-10T08:12:36;17.37;;;13.37;;
3647;SDS011;1840;48.892;15.312;2023-06-10T08:15:04;17.00;;;13.23;;
3647;SDS011;1840;48.892;15.312;2023-06-10T08:17:35;19.73;;;14.53;;
3647;SDS011;1840;48.892;15.312;2023-06-10T08:20:12;17.60;;;13.07;;
3647;SDS011;1840;48.892;15.312;2023-06-10T08:22:41;18.27;;;13.23;;
3647;SDS011;1840;48.892;15.312;2023-06-10T08:25:09;17.53;;;13.30;;
3647;SDS011;1840;48.892;15.312;2023-06-10T08:27:37;18.57;;;14.63;;
3647;SDS011;1840;48.892;15.312;2023-06-10T08:30:06;25.03;;;15.67;;
3647;SDS011;1840;48.892;15.312;2023-06-10T08:32:36;20.60;;;16.97;;
3647;SDS011;1840;48.892;15.312;2023-06-10T08:35:05;20.23;;;14.97;;
3647;SDS011;1840;48.892;15.312;2023-06-10T08:37:35;26.40;;;17.90;;
3647;SDS011;1840;48.892;15.312;2023-06-10T08:40:03;20.10;;;15.63;;
3647;SDS011;1840;48.892;15.312;2023-06-10T08:42:33;21.77;;;15.60;;
3647;SDS011;1840;48.892;15.312;2023-06-10T08:45:05;22.90;;;15.90;;
3647;SDS011;1840;48.892;15.312;2023-06-10T08:47:38;20.30;;;17.47;;
3647;SDS011;1840;48.892;15.312;2023-06-10T08:50:09;26.93;;;17.00;;
3647;SDS011;1840;48.892;15.312;2023-06-10T08:52:41;21.40;;;16.10;;
3647;SDS011;1840;48.892;15.312;2023-06-10T08:55:12;19.70;;;15.20;;
3647;SDS011;1840;48.892;15.312;2023-06-10T08:57:44;23.57;;;16.03;;
3647;SDS011;1840;48.892;15.312;2023-06-10T09:00:14;18.83;;;14.20;;
3647;SDS011;1840;48.892;15.312;2023-06-10T09:02:43;18.10;;;14.23;;
3647;SDS011;1840;48.892;15.312;2023-06-10T09:05:12;23.43;;;16.83;;
3647;SDS011;1840;48.892;15.312;2023-06-10T09:07:42;18.50;;;14.33;;
3647;SDS011;1840;48.892;15.312;2023-06-10T09:10:11;27.67;;;16.30;;
3647;SDS011;1840;48.892;15.312;2023-06-10T09:12:40;21.03;;;14.37;;
3647;SDS011;1840;48.892;15.312;2023-06-10T09:15:08;20.60;;;14.03;;
3647;SDS011;1840;48.892;15.312;2023-06-10T09:17:38;19.50;;;14.93;;
3647;SDS011;1840;48.892;15.312;2023-06-10T09:20:07;18.57;;;14.50;;
3647;SDS011;1840;48.892;15.312;2023-06-10T09:22:36;16.20;;;13.20;;
3647;SDS011;1840;48.892;15.312;2023-06-10T09:25:07;17.93;;;14.07;;
3647;SDS011;1840;48.892;15.312;2023-06-10T09:27:43;23.70;;;15.85;;
3647;SDS011;1840;48.892;15.312;2023-06-10T09:30:25;21.07;;;16.73;;
3647;SDS011;1840;48.892;15.312;2023-06-10T09:32:54;18.77;;;16.17;;
3647;SDS011;1840;48.892;15.312;2023-06-10T09:35:24;19.73;;;15.23;;
3647;SDS011;1840;48.892;15.312;2023-06-10T09:37:53;23.30;;;15.73;;
3647;SDS011;1840;48.892;15.312;2023-06-10T09:40:23;22.23;;;15.10;;
3647;SDS011;1840;48.892;15.312;2023-06-10T09:42:53;20.33;;;14.70;;
3647;SDS011;1840;48.892;15.312;2023-06-10T09:45:22;23.57;;;16.80;;
3647;SDS011;1840;48.892;15.312;2023-06-10T09:47:53;20.33;;;15.93;;
3647;SDS011;1840;48.892;15.312;2023-06-10T09:50:22;22.07;;;16.00;;
3647;SDS011;1840;48.892;15.312;2023-06-10T09:52:50;29.87;;;18.47;;
3647;SDS011;1840;48.892;15.312;2023-06-10T09:55:18;25.37;;;17.00;;
3647;SDS011;1840;48.892;15.312;2023-06-10T09:57:51;28.73;;;16.97;;
3647;SDS011;1840;48.892;15.312;2023-06-10T10:00:22;24.63;;;17.67;;
3647;SDS011;1840;48.892;15.312;2023-06-10T10:02:52;20.93;;;17.03;;
3647;SDS011;1840;48.892;15.312;2023-06-10T10:05:21;26.83;;;18.70;;
3647;SDS011;1840;48.892;15.312;2023-06-10T10:07:50;32.77;;;22.13;;
3647;SDS011;1840;48.892;15.312;2023-06-10T10:10:20;29.03;;;19.63;;
3647;SDS011;1840;48.892;15.312;2023-06-10T10:12:50;28.93;;;19.10;;
3647;SDS011;1840;48.892;15.312;2023-06-10T10:15:22;28.30;;;21.67;;
3647;SDS011;1840;48.892;15.312;2023-06-10T10:17:56;27.70;;;18.97;;
3647;SDS011;1840;48.892;15.312;2023-06-10T10:20:31;47.40;;;19.97;;
3647;SDS011;1840;48.892;15.312;2023-06-10T10:23:02;26.33;;;20.63;;
3647;SDS011;1840;48.892;15.312;2023-06-10T10:25:32;24.33;;;18.77;;
3647;SDS011;1840;48.892;15.312;2023-06-10T10:28:06;25.77;;;21.40;;
3647;SDS011;1840;48.892;15.312;2023-06-10T10:30:37;25.53;;;20.67;;
3647;SDS011;1840;48.892;15.312;2023-06-10T10:33:09;30.03;;;20.90;;
3647;SDS011;1840;48.892;15.312;2023-06-10T10:35:43;25.17;;;19.97;;
3647;SDS011;1840;48.892;15.312;2023-06-10T10:38:13;28.40;;;20.47;;
3647;SDS011;1840;48.892;15.312;2023-06-10T10:40:41;25.47;;;20.80;;
3647;SDS011;1840;48.892;15.312;2023-06-10T10:43:12;26.50;;;20.23;;
3647;SDS011;1840;48.892;15.312;2023-06-10T10:45:41;26.97;;;19.60;;
3647;SDS011;1840;48.892;15.312;2023-06-10T10:48:09;27.73;;;20.60;;
3647;SDS011;1840;48.892;15.312;2023-06-10T10:50:39;32.30;;;21.20;;
3647;SDS011;1840;48.892;15.312;2023-06-10T10:53:07;28.00;;;20.10;;
3647;SDS011;1840;48.892;15.312;2023-06-10T10:55:36;26.40;;;20.83;;
3647;SDS011;1840;48.892;15.312;2023-06-10T10:58:04;25.60;;;20.83;;
3647;SDS011;1840;48.892;15.312;2023-06-10T11:00:35;24.93;;;19.57;;
3647;SDS011;1840;48.892;15.312;2023-06-10T11:03:05;24.63;;;20.00;;
3647;SDS011;1840;48.892;15.312;2023-06-10T11:05:38;31.77;;;21.60;;
3647;SDS011;1840;48.892;15.312;2023-06-10T11:08:10;29.83;;;21.30;;
3647;SDS011;1840;48.892;15.312;2023-06-10T11:10:39;26.50;;;18.90;;
3647;SDS011;1840;48.892;15.312;2023-06-10T11:13:08;25.97;;;18.67;;
3647;SDS011;1840;48.892;15.312;2023-06-10T11:15:44;23.87;;;19.13;;
3647;SDS011;1840;48.892;15.312;2023-06-10T11:18:15;26.60;;;20.10;;
3647;SDS011;1840;48.892;15.312;2023-06-10T11:20:51;27.43;;;20.70;;
3647;SDS011;1840;48.892;15.312;2023-06-10T11:23:24;31.90;;;24.17;;
3647;SDS011;1840;48.892;15.312;2023-06-10T11:26:10;35.83;;;25.10;;
3647;SDS011;1840;48.892;15.312;2023-06-10T11:29:06;28.17;;;22.83;;
3647;SDS011;1840;48.892;15.312;2023-06-10T11:31:48;28.77;;;22.70;;
3647;SDS011;1840;48.892;15.312;2023-06-10T11:34:21;28.47;;;22.07;;
3647;SDS011;1840;48.892;15.312;2023-06-10T11:36:51;24.40;;;19.57;;
3647;SDS011;1840;48.892;15.312;2023-06-10T11:39:20;27.80;;;21.37;;
3647;SDS011;1840;48.892;15.312;2023-06-10T11:41:49;29.07;;;22.53;;
3647;SDS011;1840;48.892;15.312;2023-06-10T11:44:19;37.20;;;21.70;;
3647;SDS011;1840;48.892;15.312;2023-06-10T11:46:48;25.10;;;20.07;;
3647;SDS011;1840;48.892;15.312;2023-06-10T11:49:17;26.57;;;21.20;;
3647;SDS011;1840;48.892;15.312;2023-06-10T11:51:48;23.53;;;20.80;;
3647;SDS011;1840;48.892;15.312;2023-06-10T11:54:18;24.43;;;18.80;;
3647;SDS011;1840;48.892;15.312;2023-06-10T11:56:46;21.73;;;18.93;;
3647;SDS011;1840;48.892;15.312;2023-06-10T11:59:14;23.77;;;19.10;;
3647;SDS011;1840;48.892;15.312;2023-06-10T12:01:43;23.33;;;17.20;;
3647;SDS011;1840;48.892;15.312;2023-06-10T12:04:14;23.30;;;18.17;;
3647;SDS011;1840;48.892;15.312;2023-06-10T12:06:45;22.70;;;17.73;;
3647;SDS011;1840;48.892;15.312;2023-06-10T12:09:15;21.60;;;16.87;;
3647;SDS011;1840;48.892;15.312;2023-06-10T12:11:53;22.03;;;17.90;;
3647;SDS011;1840;48.892;15.312;2023-06-10T12:17:17;23.10;;;18.93;;
3647;SDS011;1840;48.892;15.312;2023-06-10T12:19:47;26.77;;;17.23;;
3647;SDS011;1840;48.892;15.312;2023-06-10T12:22:15;21.37;;;13.97;;
3647;SDS011;1840;48.892;15.312;2023-06-10T12:24:45;13.30;;;11.40;;
3647;SDS011;1840;48.892;15.312;2023-06-10T12:27:26;11.00;;;7.47;;
3647;SDS011;1840;48.892;15.312;2023-06-10T12:29:56;9.70;;;8.20;;
3647;SDS011;1840;48.892;15.312;2023-06-10T12:32:34;12.67;;;8.07;;
3647;SDS011;1840;48.892;15.312;2023-06-10T12:35:05;11.43;;;8.63;;
3647;SDS011;1840;48.892;15.312;2023-06-10T12:37:34;13.70;;;8.90;;
3647;SDS011;1840;48.892;15.312;2023-06-10T12:40:08;12.00;;;7.40;;
3647;SDS011;1840;48.892;15.312;2023-06-10T12:42:37;11.30;;;8.60;;
3647;SDS011;1840;48.892;15.312;2023-06-10T12:45:06;12.80;;;8.30;;
3647;SDS011;1840;48.892;15.312;2023-06-10T12:47:37;12.63;;;6.77;;
3647;SDS011;1840;48.892;15.312;2023-06-10T12:50:08;11.63;;;7.90;;
3647;SDS011;1840;48.892;15.312;2023-06-10T12:52:38;15.43;;;7.57;;
3647;SDS011;1840;48.892;15.312;2023-06-10T12:55:07;12.30;;;8.37;;
3647;SDS011;1840;48.892;15.312;2023-06-10T12:57:36;15.97;;;8.23;;
3647;SDS011;1840;48.892;15.312;2023-06-10T13:00:05;11.93;;;7.83;;
3647;SDS011;1840;48.892;15.312;2023-06-10T13:02:35;18.17;;;9.00;;
3647;SDS011;1840;48.892;15.312;2023-06-10T13:05:03;12.10;;;8.10;;
3647;SDS011;1840;48.892;15.312;2023-06-10T13:07:33;13.33;;;9.10;;
3647;SDS011;1840;48.892;15.312;2023-06-10T13:10:01;14.90;;;9.13;;
3647;SDS011;1840;48.892;15.312;2023-06-10T13:12:29;13.63;;;8.87;;
3647;SDS011;1840;48.892;15.312;2023-06-10T13:15:13;17.40;;;11.47;;
3647;SDS011;1840;48.892;15.312;2023-06-10T13:17:42;17.53;;;10.43;;
3647;SDS011;1840;48.892;15.312;2023-06-10T13:20:12;21.33;;;12.27;;
3647;SDS011;1840;48.892;15.312;2023-06-10T13:22:42;21.40;;;11.40;;
3647;SDS011;1840;48.892;15.312;2023-06-10T13:25:10;16.80;;;12.03;;
3647;SDS011;1840;48.892;15.312;2023-06-10T13:27:39;18.00;;;11.30;;
3647;SDS011;1840;48.892;15.312;2023-06-10T13:30:09;22.23;;;12.33;;
3647;SDS011;1840;48.892;15.312;2023-06-10T13:32:38;18.63;;;12.53;;
3647;SDS011;1840;48.892;15.312;2023-06-10T13:35:06;19.67;;;11.57;;
3647;SDS011;1840;48.892;15.312;2023-06-10T13:37:36;17.13;;;12.10;;
3647;SDS011;1840;48.892;15.312;2023-06-10T13:40:06;19.87;;;14.47;;
3647;SDS011;1840;48.892;15.312;2023-06-10T13:42:36;20.03;;;14.27;;
3647;SDS011;1840;48.892;15.312;2023-06-10T13:45:04;18.60;;;13.30;;
3647;SDS011;1840;48.892;15.312;2023-06-10T13:47:33;17.92;;;12.30;;
3647;SDS011;1840;48.892;15.312;2023-06-10T13:50:02;21.73;;;14.27;;
3647;SDS011;1840;48.892;15.312;2023-06-10T13:52:30;19.90;;;15.23;;
3647;SDS011;1840;48.892;15.312;2023-06-10T13:54:58;20.90;;;14.77;;
3647;SDS011;1840;48.892;15.312;2023-06-10T13:57:27;23.67;;;16.43;;
3647;SDS011;1840;48.892;15.312;2023-06-10T13:59:55;18.27;;;14.80;;
3647;SDS011;1840;48.892;15.312;2023-06-10T14:02:23;17.97;;;15.17;;
3647;SDS011;1840;48.892;15.312;2023-06-10T14:04:52;18.57;;;13.97;;
3647;SDS011;1840;48.892;15.312;2023-06-10T14:07:20;25.50;;;15.30;;
3647;SDS011;1840;48.892;15.312;2023-06-10T14:09:48;19.50;;;16.20;;
3647;SDS011;1840;48.892;15.312;2023-06-10T14:12:17;24.80;;;14.30;;
3647;SDS011;1840;48.892;15.312;2023-06-10T14:14:46;17.27;;;14.60;;
3647;SDS011;1840;48.892;15.312;2023-06-10T14:17:14;23.50;;;13.93;;
3647;SDS011;1840;48.892;15.312;2023-06-10T14:19:42;21.23;;;14.83;;
3647;SDS011;1840;48.892;15.312;2023-06-10T14:22:10;22.40;;;14.40;;
3647;SDS011;1840;48.892;15.312;2023-06-10T14:24:38;17.50;;;14.47;;
3647;SDS011;1840;48.892;15.312;2023-06-10T14:27:06;20.70;;;14.80;;
3647;SDS011;1840;48.892;15.312;2023-06-10T14:29:34;17.33;;;13.43;;
3647;SDS011;1840;48.892;15.312;2023-06-10T14:32:04;17.80;;;13.93;;
3647;SDS011;1840;48.892;15.312;2023-06-10T14:34:35;20.33;;;17.00;;
3647;SDS011;1840;48.892;15.312;2023-06-10T14:37:03;18.20;;;13.40;;
3647;SDS011;1840;48.892;15.312;2023-06-10T14:39:34;20.70;;;16.53;;
3647;SDS011;1840;48.892;15.312;2023-06-10T14:42:02;17.47;;;14.47;;
3647;SDS011;1840;48.892;15.312;2023-06-10T14:44:31;28.53;;;15.07;;
3647;SDS011;1840;48.892;15.312;2023-06-10T14:46:59;20.87;;;16.60;;
3647;SDS011;1840;48.892;15.312;2023-06-10T14:49:29;20.07;;;15.40;;
3647;SDS011;1840;48.892;15.312;2023-06-10T14:51:57;20.70;;;15.90;;